Time;durP1;ratioP1;P1;durP2;ratioP2;P2;SDS_P1;SDS_P2;PMS_P1;PMS_P2;Temp;Humidity;BMP_temperature;BMP_pressure;BME280_temperature;BME280_humidity;BME280_pressure;Samples;Min_cycle;Max_cycle;Signal;HPM_P1;HPM_P2
2023/04/23 00:01:56;;;;;;;35.70;29.95;;;;;;;;;;5285209;28;20043;-71
2023/04/23 00:04:29;;;;;;;29.92;26.67;;;;;;;;;;5285164;28;20023;-70
2023/04/23 00:07:02;;;;;;;30.90;26.55;;;;;;;;;;5285769;28;20027;-70
2023/04/23 00:09:34;;;;;;;28.60;24.88;;;;;;;;;;5285096;28;20044;-71
2023/04/23 00:12:06;;;;;;;31.95;27.05;;;;;;;;;;5285399;28;20074;-70
2023/04/23 00:14:37;;;;;;;28.20;23.58;;;;;;;;;;5285307;28;20032;-71
2023/04/23 00:17:09;;;;;;;28.08;25.08;;;;;;;;;;5284984;28;20016;-70
2023/04/23 00:19:40;;;;;;;26.98;24.10;;;;;;;;;;5284956;28;20535;-72
2023/04/23 00:22:12;;;;;;;25.70;22.90;;;;;;;;;;5285480;28;20032;-70
2023/04/23 00:24:43;;;;;;;25.38;22.63;;;;;;;;;;5284189;28;20039;-71
2023/04/23 00:27:16;;;;;;;27.08;23.75;;;;;;;;;;5285870;28;20017;-70
2023/04/23 00:29:50;;;;;;;25.90;23.17;;;;;;;;;;5285047;28;20013;-71
2023/04/23 00:32:21;;;;;;;27.30;22.08;;;;;;;;;;5284865;28;20123;-71
2023/04/23 00:34:54;;;;;;;26.02;21.73;;;;;;;;;;5284587;28;20115;-70
2023/04/23 00:37:25;;;;;;;25.15;21.90;;;;;;;;;;5285586;28;20008;-71
2023/04/23 00:39:56;;;;;;;26.27;21.20;;;;;;;;;;5284283;28;20408;-70
2023/04/23 00:42:27;;;;;;;23.38;20.92;;;;;;;;;;5285548;28;20017;-70
2023/04/23 00:45:00;;;;;;;24.88;22.00;;;;;;;;;;5284004;28;20024;-71
2023/04/23 00:47:32;;;;;;;23.52;20.45;;;;;;;;;;5284951;28;20451;-70
2023/04/23 00:50:05;;;;;;;23.73;20.77;;;;;;;;;;5285083;28;20027;-71
2023/04/23 00:52:37;;;;;;;24.92;22.23;;;;;;;;;;5284213;28;20024;-71
2023/04/23 00:55:09;;;;;;;22.77;20.33;;;;;;;;;;5285112;28;20102;-71
2023/04/23 00:57:41;;;;;;;22.38;19.98;;;;;;;;;;5284105;28;20017;-71
2023/04/23 01:00:12;;;;;;;23.55;21.20;;;;;;;;;;5283838;28;20035;-71
2023/04/23 01:02:44;;;;;;;21.42;19.25;;;;;;;;;;5284340;28;20452;-70
2023/04/23 01:05:16;;;;;;;21.38;19.17;;;;;;;;;;5284852;28;20023;-71
2023/04/23 01:07:48;;;;;;;21.55;19.33;;;;;;;;;;5283453;28;20087;-71
2023/04/23 01:10:20;;;;;;;21.35;19.20;;;;;;;;;;5283727;28;20100;-71
2023/04/23 01:12:51;;;;;;;23.23;20.83;;;;;;;;;;5282908;28;20013;-71
2023/04/23 01:15:22;;;;;;;23.05;20.58;;;;;;;;;;5284359;28;20489;-71
2023/04/23 01:17:56;;;;;;;21.15;19.05;;;;;;;;;;5283785;28;20032;-71
2023/04/23 01:20:27;;;;;;;22.60;20.25;;;;;;;;;;5283506;28;20316;-70
2023/04/23 01:22:58;;;;;;;21.42;19.13;;;;;;;;;;5283622;28;20463;-71
2023/04/23 01:25:29;;;;;;;24.13;21.05;;;;;;;;;;5283924;28;20246;-72
2023/04/23 01:28:00;;;;;;;22.02;19.77;;;;;;;;;;5283305;28;20032;-71
2023/04/23 01:30:32;;;;;;;21.95;19.65;;;;;;;;;;5284026;28;20482;-71
2023/04/23 01:33:05;;;;;;;22.67;19.95;;;;;;;;;;5283790;28;20020;-71
2023/04/23 01:35:36;;;;;;;21.88;19.67;;;;;;;;;;5282904;28;20391;-70
2023/04/23 01:38:09;;;;;;;21.33;19.13;;;;;;;;;;5283933;28;20028;-71
2023/04/23 01:40:40;;;;;;;21.65;19.45;;;;;;;;;;5283446;28;20082;-70
2023/04/23 01:43:11;;;;;;;20.77;18.80;;;;;;;;;;5283360;28;20020;-70
2023/04/23 01:45:42;;;;;;;19.80;17.75;;;;;;;;;;5283267;28;20103;-71
2023/04/23 01:48:14;;;;;;;20.15;18.05;;;;;;;;;;5283276;28;20858;-71
2023/04/23 01:50:45;;;;;;;21.30;19.08;;;;;;;;;;5283323;28;20070;-72
2023/04/23 01:53:16;;;;;;;19.45;17.55;;;;;;;;;;5283832;28;20025;-71
2023/04/23 01:55:49;;;;;;;20.48;18.38;;;;;;;;;;5282353;28;20012;-71
2023/04/23 01:58:22;;;;;;;22.65;19.50;;;;;;;;;;5283771;28;20032;-71
2023/04/23 02:00:53;;;;;;;20.58;18.58;;;;;;;;;;5283022;28;20020;-72
2023/04/23 02:03:24;;;;;;;21.00;18.90;;;;;;;;;;5282856;28;20367;-71
2023/04/23 02:05:56;;;;;;;19.85;17.95;;;;;;;;;;5282797;28;20103;-72
2023/04/23 02:08:28;;;;;;;20.70;18.08;;;;;;;;;;5283746;28;20467;-71
2023/04/23 02:10:59;;;;;;;19.13;17.23;;;;;;;;;;5282160;28;20040;-71
2023/04/23 02:13:30;;;;;;;20.33;18.23;;;;;;;;;;5283436;28;20043;-72
2023/04/23 02:16:01;;;;;;;20.88;18.80;;;;;;;;;;5283140;28;20028;-71
2023/04/23 02:18:32;;;;;;;19.60;17.70;;;;;;;;;;5283054;28;20044;-71
2023/04/23 02:21:05;;;;;;;18.42;16.63;;;;;;;;;;5282777;28;20039;-71
2023/04/23 02:23:37;;;;;;;19.08;17.20;;;;;;;;;;5281705;28;20016;-71
2023/04/23 02:26:08;;;;;;;18.90;16.95;;;;;;;;;;5282975;28;20048;-71
2023/04/23 02:28:40;;;;;;;19.08;17.17;;;;;;;;;;5282610;28;20143;-72
2023/04/23 02:31:12;;;;;;;17.55;15.75;;;;;;;;;;5282414;28;20099;-72
2023/04/23 02:33:43;;;;;;;16.35;14.85;;;;;;;;;;5282241;28;20035;-72
2023/04/23 02:36:15;;;;;;;18.20;16.30;;;;;;;;;;5283091;28;20070;-72
2023/04/23 02:38:48;;;;;;;16.90;15.30;;;;;;;;;;5281494;28;20021;-71
2023/04/23 02:41:20;;;;;;;18.60;16.80;;;;;;;;;;5282872;28;20013;-71
2023/04/23 02:43:51;;;;;;;19.05;17.13;;;;;;;;;;5282218;28;20063;-71
2023/04/23 02:46:22;;;;;;;18.10;16.30;;;;;;;;;;5281772;28;20016;-71
2023/04/23 02:48:53;;;;;;;17.27;15.57;;;;;;;;;;5282322;28;20054;-71
2023/04/23 02:51:25;;;;;;;17.10;15.40;;;;;;;;;;5281545;28;20020;-71
2023/04/23 02:53:56;;;;;;;17.58;15.85;;;;;;;;;;5281826;28;20550;-71
2023/04/23 02:56:27;;;;;;;18.05;16.35;;;;;;;;;;5282588;28;20013;-70
2023/04/23 02:58:58;;;;;;;17.42;15.70;;;;;;;;;;5281403;28;20060;-71
2023/04/23 03:01:29;;;;;;;19.15;17.35;;;;;;;;;;5282321;28;20028;-72
2023/04/23 03:04:02;;;;;;;16.55;15.00;;;;;;;;;;5282322;28;20489;-71
2023/04/23 03:06:34;;;;;;;17.88;16.08;;;;;;;;;;5281149;28;20065;-71
2023/04/23 03:09:05;;;;;;;16.77;15.15;;;;;;;;;;5281708;28;20012;-72
2023/04/23 03:11:37;;;;;;;17.25;15.65;;;;;;;;;;5282044;28;20015;-72
2023/04/23 03:14:08;;;;;;;16.52;14.93;;;;;;;;;;5281085;28;20120;-71
2023/04/23 03:16:39;;;;;;;15.93;14.40;;;;;;;;;;5281533;28;20107;-72
2023/04/23 03:19:10;;;;;;;18.17;16.48;;;;;;;;;;5282116;28;20052;-71
2023/04/23 03:21:41;;;;;;;17.23;15.60;;;;;;;;;;5280330;28;20024;-72
2023/04/23 03:24:13;;;;;;;17.48;15.80;;;;;;;;;;5281981;28;20056;-71
2023/04/23 03:26:45;;;;;;;16.80;15.20;;;;;;;;;;5280250;28;20036;-71
2023/04/23 03:29:16;;;;;;;16.33;14.73;;;;;;;;;;5281806;28;20037;-73
2023/04/23 03:31:47;;;;;;;15.77;14.15;;;;;;;;;;5281453;28;20112;-72
2023/04/23 03:34:18;;;;;;;16.92;15.32;;;;;;;;;;5280448;28;20483;-72
2023/04/23 03:36:50;;;;;;;15.65;14.20;;;;;;;;;;5281172;28;20613;-71
2023/04/23 03:39:21;;;;;;;16.05;14.40;;;;;;;;;;5281764;28;20717;-71
2023/04/23 03:41:52;;;;;;;17.05;15.25;;;;;;;;;;5280280;28;20078;-72
2023/04/23 03:44:23;;;;;;;16.90;15.25;;;;;;;;;;5281662;28;20313;-71
2023/04/23 03:46:54;;;;;;;16.10;14.50;;;;;;;;;;5281290;28;20270;-71
2023/04/23 03:49:26;;;;;;;15.82;14.43;;;;;;;;;;5280970;28;20095;-71
2023/04/23 03:51:57;;;;;;;16.58;15.05;;;;;;;;;;5281500;28;20044;-71
2023/04/23 03:54:28;;;;;;;16.20;14.70;;;;;;;;;;5281504;28;20040;-72
2023/04/23 03:57:00;;;;;;;15.82;14.20;;;;;;;;;;5280639;28;20081;-72
2023/04/23 03:59:31;;;;;;;15.82;14.35;;;;;;;;;;5281856;28;20092;-72
2023/04/23 04:02:03;;;;;;;15.27;13.82;;;;;;;;;;5280649;28;20063;-72
2023/04/23 04:04:35;;;;;;;15.32;13.82;;;;;;;;;;5281235;28;20024;-71
2023/04/23 04:07:06;;;;;;;16.92;14.45;;;;;;;;;;5281195;28;20015;-72
2023/04/23 04:09:37;;;;;;;16.27;14.68;;;;;;;;;;5280127;28;20012;-72
2023/04/23 04:12:09;;;;;;;16.17;14.57;;;;;;;;;;5281589;28;20020;-72
2023/04/23 04:14:40;;;;;;;17.77;14.90;;;;;;;;;;5280987;28;20043;-73
2023/04/23 04:17:13;;;;;;;15.80;14.20;;;;;;;;;;5281105;28;20027;-72
2023/04/23 04:19:45;;;;;;;16.17;14.57;;;;;;;;;;5280854;28;20027;-71
2023/04/23 04:22:16;;;;;;;15.23;13.82;;;;;;;;;;5281229;28;20016;-72
2023/04/23 04:24:47;;;;;;;16.38;14.88;;;;;;;;;;5279790;28;20044;-72
2023/04/23 04:27:18;;;;;;;15.18;13.77;;;;;;;;;;5281271;28;20016;-72
2023/04/23 04:29:50;;;;;;;15.30;13.80;;;;;;;;;;5279950;28;20320;-72
2023/04/23 04:32:22;;;;;;;14.52;13.13;;;;;;;;;;5281267;28;20034;-71
2023/04/23 04:34:53;;;;;;;15.02;13.63;;;;;;;;;;5280917;28;20031;-72
2023/04/23 04:37:24;;;;;;;14.24;12.84;;;;;;;;;;5280830;28;20103;-72
2023/04/23 04:39:55;;;;;;;14.52;13.23;;;;;;;;;;5280872;28;20071;-72
2023/04/23 04:42:27;;;;;;;15.30;13.80;;;;;;;;;;5281459;28;20025;-71
2023/04/23 04:44:58;;;;;;;15.55;14.02;;;;;;;;;;5280356;28;20032;-72
2023/04/23 04:47:30;;;;;;;15.15;13.75;;;;;;;;;;5284931;28;20066;-72
2023/04/23 04:50:01;;;;;;;15.52;13.93;;;;;;;;;;5285059;28;20390;-72
2023/04/23 04:52:32;;;;;;;15.00;13.68;;;;;;;;;;5284273;28;20020;-72
2023/04/23 04:55:05;;;;;;;14.02;12.70;;;;;;;;;;5284778;28;20491;-72
2023/04/23 04:57:37;;;;;;;14.68;13.38;;;;;;;;;;5284624;28;20020;-72
2023/04/23 05:00:18;;;;;;;15.75;14.15;;;;;;;;;;5284309;28;20093;-72
2023/04/23 05:02:50;;;;;;;14.23;12.93;;;;;;;;;;5284502;28;20016;-72
2023/04/23 05:05:21;;;;;;;15.27;13.68;;;;;;;;;;5284343;28;20086;-72
2023/04/23 05:07:53;;;;;;;15.30;13.80;;;;;;;;;;5283941;28;20028;-72
2023/04/23 05:10:25;;;;;;;14.38;12.98;;;;;;;;;;5284547;28;20027;-72
2023/04/23 05:12:56;;;;;;;14.55;13.05;;;;;;;;;;5283444;28;20443;-72
2023/04/23 05:15:27;;;;;;;14.77;13.35;;;;;;;;;;5284429;28;20024;-72
2023/04/23 05:17:59;;;;;;;15.80;14.15;;;;;;;;;;5283919;28;20012;-70
2023/04/23 05:20:30;;;;;;;14.93;13.32;;;;;;;;;;5283364;28;20017;-71
2023/04/23 05:23:01;;;;;;;14.65;13.25;;;;;;;;;;5284251;28;20020;-72
2023/04/23 05:25:34;;;;;;;15.05;13.50;;;;;;;;;;5283602;28;20367;-72
2023/04/23 05:28:07;;;;;;;14.63;13.23;;;;;;;;;;5283132;28;20037;-71
2023/04/23 05:30:38;;;;;;;14.88;13.45;;;;;;;;;;5283589;28;20041;-72
2023/04/23 05:33:11;;;;;;;15.10;13.60;;;;;;;;;;5283334;28;20040;-71
2023/04/23 05:35:42;;;;;;;14.43;13.02;;;;;;;;;;5283778;28;20036;-72
2023/04/23 05:38:13;;;;;;;14.52;13.13;;;;;;;;;;5284057;28;20016;-72
2023/04/23 05:40:45;;;;;;;14.18;12.82;;;;;;;;;;5282674;28;20476;-72
2023/04/23 05:43:16;;;;;;;13.63;12.23;;;;;;;;;;5283889;28;20016;-71
2023/04/23 05:45:47;;;;;;;14.44;13.04;;;;;;;;;;5283585;28;20039;-71
2023/04/23 05:48:18;;;;;;;14.95;12.18;;;;;;;;;;5283490;28;20021;-72
2023/04/23 05:50:49;;;;;;;12.73;11.55;;;;;;;;;;5283317;28;20021;-71
2023/04/23 05:53:21;;;;;;;13.30;12.00;;;;;;;;;;5283703;28;20027;-71
2023/04/23 05:55:52;;;;;;;13.45;12.15;;;;;;;;;;5282138;28;20267;-71
2023/04/23 05:58:23;;;;;;;13.43;12.07;;;;;;;;;;5284077;28;20101;-71
2023/04/23 06:00:56;;;;;;;12.18;11.15;;;;;;;;;;5283048;28;20036;-72
2023/04/23 06:03:27;;;;;;;11.85;10.65;;;;;;;;;;5282949;28;20024;-71
2023/04/23 06:05:58;;;;;;;11.30;10.20;;;;;;;;;;5283098;28;20020;-71
2023/04/23 06:08:30;;;;;;;11.00;10.00;;;;;;;;;;5282426;28;20277;-72
2023/04/23 06:11:01;;;;;;;11.55;10.38;;;;;;;;;;5283236;28;20501;-72
2023/04/23 06:13:32;;;;;;;11.57;10.48;;;;;;;;;;5283144;28;20033;-72
2023/04/23 06:16:03;;;;;;;11.07;9.98;;;;;;;;;;5282488;28;20012;-71
2023/04/23 06:18:36;;;;;;;10.00;9.20;;;;;;;;;;5283171;28;20024;-71
2023/04/23 06:21:07;;;;;;;10.55;9.52;;;;;;;;;;5283323;28;20091;-71
2023/04/23 06:23:39;;;;;;;11.38;10.35;;;;;;;;;;5282106;28;20099;-71
2023/04/23 06:26:10;;;;;;;11.20;10.10;;;;;;;;;;5282983;28;20060;-71
2023/04/23 06:28:42;;;;;;;9.93;9.02;;;;;;;;;;5282321;28;20111;-71
2023/04/23 06:31:13;;;;;;;11.18;10.07;;;;;;;;;;5282233;28;20254;-71
2023/04/23 06:33:44;;;;;;;9.38;8.50;;;;;;;;;;5282555;28;20032;-71
2023/04/23 06:36:15;;;;;;;11.15;9.70;;;;;;;;;;5282620;28;20028;-71
2023/04/23 06:38:46;;;;;;;9.35;8.40;;;;;;;;;;5282157;28;20557;-71
2023/04/23 06:41:18;;;;;;;9.68;8.68;;;;;;;;;;5282824;28;20255;-71
2023/04/23 06:43:49;;;;;;;8.95;8.15;;;;;;;;;;5281232;28;20275;-72
2023/04/23 06:46:20;;;;;;;8.10;7.25;;;;;;;;;;5282824;28;20398;-72
2023/04/23 06:48:51;;;;;;;8.23;7.43;;;;;;;;;;5282318;28;20471;-72
2023/04/23 06:51:24;;;;;;;6.82;6.20;;;;;;;;;;5282077;28;20028;-72
2023/04/23 06:53:55;;;;;;;6.70;5.70;;;;;;;;;;5282011;28;20497;-71
2023/04/23 06:56:26;;;;;;;9.00;6.97;;;;;;;;;;5282536;28;20021;-71
2023/04/23 06:58:58;;;;;;;7.18;5.97;;;;;;;;;;5281370;28;20396;-71
2023/04/23 07:01:29;;;;;;;7.40;5.90;;;;;;;;;;5282489;28;20051;-71
2023/04/23 07:04:00;;;;;;;6.50;5.00;;;;;;;;;;5282096;28;20313;-72
2023/04/23 07:06:33;;;;;;;5.72;5.15;;;;;;;;;;5281224;28;20084;-73
2023/04/23 07:09:05;;;;;;;5.88;5.22;;;;;;;;;;5281789;28;20051;-74
2023/04/23 07:11:36;;;;;;;6.97;5.03;;;;;;;;;;5281501;28;20020;-73
2023/04/23 07:14:07;;;;;;;7.03;3.90;;;;;;;;;;5282110;28;20112;-74
2023/04/23 07:16:39;;;;;;;6.95;4.15;;;;;;;;;;5281644;28;20031;-74
2023/04/23 07:19:10;;;;;;;5.73;4.00;;;;;;;;;;5281545;28;20074;-74
2023/04/23 07:21:41;;;;;;;7.30;2.90;;;;;;;;;;5281792;28;20267;-74
2023/04/23 07:24:12;;;;;;;5.83;3.03;;;;;;;;;;5281885;28;20314;-73
2023/04/23 07:26:44;;;;;;;6.23;3.10;;;;;;;;;;5280631;28;20282;-73
2023/04/23 07:29:15;;;;;;;4.55;2.60;;;;;;;;;;5282109;28;20295;-73
2023/04/23 07:31:47;;;;;;;4.65;3.00;;;;;;;;;;5281394;28;20024;-73
2023/04/23 07:34:18;;;;;;;5.47;2.40;;;;;;;;;;5281126;28;20034;-74
2023/04/23 07:36:50;;;;;;;5.40;2.50;;;;;;;;;;5281257;28;20375;-74
2023/04/23 07:39:22;;;;;;;3.50;2.30;;;;;;;;;;5282093;28;20757;-73
2023/04/23 07:41:53;;;;;;;5.47;2.13;;;;;;;;;;5280614;28;20023;-73
2023/04/23 07:44:24;;;;;;;5.55;1.92;;;;;;;;;;5281787;28;20051;-73
2023/04/23 07:46:55;;;;;;;3.42;1.52;;;;;;;;;;5280692;28;20124;-74
2023/04/23 07:49:27;;;;;;;5.60;1.50;;;;;;;;;;5281948;28;20017;-73
2023/04/23 07:51:58;;;;;;;5.25;1.52;;;;;;;;;;5281318;28;20082;-73
2023/04/23 07:54:29;;;;;;;4.00;1.57;;;;;;;;;;5280764;28;20064;-74
2023/04/23 07:57:01;;;;;;;4.73;1.73;;;;;;;;;;5281354;28;20270;-73
2023/04/23 07:59:33;;;;;;;6.03;1.70;;;;;;;;;;5281341;28;20263;-74
2023/04/23 08:02:04;;;;;;;5.93;1.67;;;;;;;;;;5281130;28;20435;-73
2023/04/23 08:04:35;;;;;;;7.10;0.98;;;;;;;;;;5281581;28;20037;-73
2023/04/23 08:07:06;;;;;;;4.83;1.33;;;;;;;;;;5281224;28;20364;-73
2023/04/23 08:09:38;;;;;;;6.18;1.48;;;;;;;;;;5280608;28;20275;-73
2023/04/23 08:12:09;;;;;;;5.23;1.33;;;;;;;;;;5281465;28;20028;-75
2023/04/23 08:14:41;;;;;;;6.70;1.58;;;;;;;;;;5281025;28;20793;-74
2023/04/23 08:17:12;;;;;;;4.63;1.05;;;;;;;;;;5280838;28;20094;-73
2023/04/23 08:19:43;;;;;;;6.78;1.00;;;;;;;;;;5281011;28;20270;-74
2023/04/23 08:22:16;;;;;;;5.40;1.13;;;;;;;;;;5285035;28;20319;-71
2023/04/23 08:24:47;;;;;;;5.75;1.13;;;;;;;;;;5284984;28;20454;-73
2023/04/23 08:27:18;;;;;;;4.38;1.00;;;;;;;;;;5285547;28;20036;-74
2023/04/23 08:29:50;;;;;;;4.33;0.90;;;;;;;;;;5284212;28;20532;-72
2023/04/23 08:32:21;;;;;;;4.18;0.93;;;;;;;;;;5285503;28;20266;-72
2023/04/23 08:34:52;;;;;;;3.55;0.80;;;;;;;;;;5285150;28;20532;-73
2023/04/23 08:37:24;;;;;;;3.63;0.80;;;;;;;;;;5284759;28;20017;-72
2023/04/23 08:39:55;;;;;;;4.00;0.70;;;;;;;;;;5284896;28;20036;-72
2023/04/23 08:42:45;;;;;;;3.47;0.73;;;;;;;;;;5285173;28;20281;-73
2023/04/23 08:45:16;;;;;;;4.32;1.13;;;;;;;;;;5284527;28;20067;-72
2023/04/23 08:47:47;;;;;;;4.85;0.90;;;;;;;;;;5284642;28;20016;-72
2023/04/23 08:50:19;;;;;;;2.50;0.63;;;;;;;;;;5284411;28;20063;-72
2023/04/23 08:52:54;;;;;;;3.83;0.60;;;;;;;;;;5284523;28;20107;-71
2023/04/23 08:55:25;;;;;;;3.58;0.73;;;;;;;;;;5285049;28;20028;-72
2023/04/23 08:57:57;;;;;;;5.05;0.75;;;;;;;;;;5283603;28;20486;-72
2023/04/23 09:00:28;;;;;;;5.38;0.60;;;;;;;;;;5285015;28;20017;-72
2023/04/23 09:03:00;;;;;;;3.08;0.70;;;;;;;;;;5284441;28;20464;-72
2023/04/23 09:05:31;;;;;;;4.85;0.50;;;;;;;;;;5283685;28;20024;-72
2023/04/23 09:08:02;;;;;;;5.07;0.82;;;;;;;;;;5284833;28;20489;-71
2023/04/23 09:10:35;;;;;;;7.07;0.70;;;;;;;;;;5284469;28;20023;-72
2023/04/23 09:13:07;;;;;;;3.75;0.73;;;;;;;;;;5283498;28;20273;-73
2023/04/23 09:15:42;;;;;;;6.20;0.80;;;;;;;;;;5283580;28;20491;-71
2023/04/23 09:18:13;;;;;;;4.63;0.50;;;;;;;;;;5283777;28;20074;-72
2023/04/23 09:20:44;;;;;;;3.67;0.73;;;;;;;;;;5284101;28;20456;-72
2023/04/23 09:23:20;;;;;;;5.20;0.60;;;;;;;;;;5284797;28;20023;-72
2023/04/23 09:25:51;;;;;;;2.88;0.40;;;;;;;;;;5282891;28;20052;-72
2023/04/23 09:28:33;;;;;;;4.18;0.60;;;;;;;;;;5284325;28;20015;-72
2023/04/23 09:31:05;;;;;;;3.10;0.70;;;;;;;;;;5283532;28;20086;-75
2023/04/23 09:33:36;;;;;;;3.33;0.55;;;;;;;;;;5283419;28;20143;-74
2023/04/23 09:36:13;;;;;;;3.65;0.50;;;;;;;;;;5284032;28;20017;-73
2023/04/23 09:38:44;;;;;;;3.05;0.50;;;;;;;;;;5283660;28;20052;-73
2023/04/23 09:41:25;;;;;;;2.65;0.57;;;;;;;;;;5283734;28;20059;-73
2023/04/23 09:43:57;;;;;;;3.15;0.50;;;;;;;;;;5283720;28;20070;-73
2023/04/23 09:46:35;;;;;;;3.78;0.70;;;;;;;;;;5283223;28;20025;-72
2023/04/23 09:49:07;;;;;;;2.03;0.47;;;;;;;;;;5283831;28;20530;-73
2023/04/23 09:51:39;;;;;;;2.13;0.40;;;;;;;;;;5283612;28;20099;-74
2023/04/23 09:54:20;;;;;;;4.88;0.40;;;;;;;;;;5283582;28;20070;-72
2023/04/23 09:56:55;;;;;;;2.42;0.47;;;;;;;;;;5283058;28;20074;-69
2023/04/23 09:59:27;;;;;;;3.72;0.40;;;;;;;;;;5283744;28;20020;-73
2023/04/23 10:02:00;;;;;;;3.22;0.57;;;;;;;;;;5282413;28;20021;-73
2023/04/23 10:04:32;;;;;;;3.00;0.50;;;;;;;;;;5283639;28;20031;-72
2023/04/23 10:07:07;;;;;;;3.95;0.77;;;;;;;;;;5282994;28;20012;-73
2023/04/23 10:09:40;;;;;;;5.55;0.50;;;;;;;;;;5282079;28;20031;-73
2023/04/23 10:12:11;;;;;;;4.38;0.50;;;;;;;;;;5281734;28;20012;-73
2023/04/23 10:14:44;;;;;;;5.10;0.70;;;;;;;;;;5280339;28;20085;-73
2023/04/23 10:17:15;;;;;;;4.15;0.57;;;;;;;;;;5281895;28;20013;-73
2023/04/23 10:19:47;;;;;;;3.05;0.45;;;;;;;;;;5281437;28;20537;-74
2023/04/23 10:22:20;;;;;;;3.25;0.50;;;;;;;;;;5281950;28;20048;-73
2023/04/23 10:24:54;;;;;;;2.60;0.60;;;;;;;;;;5282481;28;20098;-74
2023/04/23 10:27:26;;;;;;;4.20;0.50;;;;;;;;;;5283092;28;20129;-73
2023/04/23 10:29:59;;;;;;;2.85;0.40;;;;;;;;;;5281849;28;20790;-72
2023/04/23 10:32:32;;;;;;;4.70;0.80;;;;;;;;;;5282670;28;20016;-74
2023/04/23 10:35:03;;;;;;;4.40;0.50;;;;;;;;;;5282598;28;20040;-73
2023/04/23 10:37:35;;;;;;;3.58;0.52;;;;;;;;;;5281362;28;20021;-74
2023/04/23 10:40:12;;;;;;;5.70;0.73;;;;;;;;;;5282895;28;20384;-74
2023/04/23 10:42:44;;;;;;;5.25;0.50;;;;;;;;;;5278844;28;20022;-73
2023/04/23 10:45:16;;;;;;;3.88;0.43;;;;;;;;;;5280707;28;20020;-74
2023/04/23 10:47:48;;;;;;;3.50;0.50;;;;;;;;;;5279920;28;20017;-74
2023/04/23 10:50:28;;;;;;;2.15;0.47;;;;;;;;;;5280192;28;20015;-74
2023/04/23 10:53:00;;;;;;;2.78;0.47;;;;;;;;;;5279903;28;20100;-74
2023/04/23 10:55:31;;;;;;;4.80;0.60;;;;;;;;;;5280228;28;20551;-75
2023/04/23 10:58:04;;;;;;;2.92;0.52;;;;;;;;;;5281303;28;20111;-74
2023/04/23 11:00:44;;;;;;;3.88;0.65;;;;;;;;;;5282505;28;20016;-74
2023/04/23 11:03:29;;;;;;;3.10;0.40;;;;;;;;;;5282586;28;20050;-74
2023/04/23 11:06:03;;;;;;;2.72;0.60;;;;;;;;;;5281306;28;20028;-74
2023/04/23 11:08:35;;;;;;;2.45;0.60;;;;;;;;;;5282548;28;20047;-74
2023/04/23 11:11:07;;;;;;;2.60;0.52;;;;;;;;;;5281599;28;20052;-74
2023/04/23 11:13:49;;;;;;;4.70;0.50;;;;;;;;;;5281768;28;20537;-74
2023/04/23 11:16:21;;;;;;;3.15;0.57;;;;;;;;;;5282444;28;20025;-74
2023/04/23 11:19:02;;;;;;;3.72;0.65;;;;;;;;;;5281131;28;20016;-74
2023/04/23 11:21:51;;;;;;;3.00;0.30;;;;;;;;;;5281967;28;20475;-73
2023/04/23 11:24:23;;;;;;;1.30;0.30;;;;;;;;;;5282183;28;20422;-74
2023/04/23 11:26:54;;;;;;;2.70;0.65;;;;;;;;;;5280265;28;20052;-71
2023/04/23 11:29:26;;;;;;;3.42;0.50;;;;;;;;;;5282115;28;20071;-72
2023/04/23 11:31:58;;;;;;;3.20;0.40;;;;;;;;;;5280908;28;20020;-71
2023/04/23 11:34:29;;;;;;;2.97;0.30;;;;;;;;;;5281982;28;20028;-72
2023/04/23 11:37:01;;;;;;;3.00;0.30;;;;;;;;;;5281813;28;20425;-72
2023/04/23 11:39:32;;;;;;;3.28;0.40;;;;;;;;;;5280901;28;20050;-71
2023/04/23 11:42:05;;;;;;;0.95;0.20;;;;;;;;;;5281952;28;20039;-71
2023/04/23 11:44:40;;;;;;;1.65;0.28;;;;;;;;;;5281600;28;20056;-72
2023/04/23 11:47:11;;;;;;;1.95;0.30;;;;;;;;;;5281546;28;20020;-71
2023/04/23 11:49:43;;;;;;;2.08;0.50;;;;;;;;;;5281496;28;20062;-71
2023/04/23 11:52:14;;;;;;;3.70;0.40;;;;;;;;;;5281869;28;20063;-72
2023/04/23 11:54:45;;;;;;;2.53;0.40;;;;;;;;;;5280425;28;20512;-72
2023/04/23 11:57:16;;;;;;;2.42;0.40;;;;;;;;;;5282047;28;20099;-72
2023/04/23 11:59:48;;;;;;;1.80;0.40;;;;;;;;;;5280775;28;20292;-72
2023/04/23 12:02:22;;;;;;;2.97;0.50;;;;;;;;;;5281335;28;20281;-72
2023/04/23 12:04:54;;;;;;;2.80;0.40;;;;;;;;;;5281241;28;20294;-73
2023/04/23 12:07:31;;;;;;;2.80;0.32;;;;;;;;;;5280566;28;20025;-72
2023/04/23 12:10:03;;;;;;;1.92;0.40;;;;;;;;;;5281181;28;20013;-73
2023/04/23 12:12:34;;;;;;;1.73;0.40;;;;;;;;;;5281270;28;20482;-72
2023/04/23 12:15:06;;;;;;;2.50;0.38;;;;;;;;;;5280633;28;20440;-72
2023/04/23 12:17:37;;;;;;;2.88;0.40;;;;;;;;;;5277482;28;20054;-73
2023/04/23 12:20:11;;;;;;;3.30;0.40;;;;;;;;;;5280954;28;20486;-72
2023/04/23 12:22:42;;;;;;;3.65;0.50;;;;;;;;;;5280022;28;20078;-73
2023/04/23 12:25:14;;;;;;;1.20;0.30;;;;;;;;;;5281107;28;20063;-72
2023/04/23 12:27:46;;;;;;;4.10;0.40;;;;;;;;;;5280521;28;20282;-73
2023/04/23 12:30:17;;;;;;;2.38;0.38;;;;;;;;;;5280171;28;20012;-72
2023/04/23 12:32:49;;;;;;;2.55;0.32;;;;;;;;;;5280467;28;20738;-73
2023/04/23 12:35:20;;;;;;;3.80;0.43;;;;;;;;;;5280113;28;20036;-72
2023/04/23 12:37:51;;;;;;;3.22;0.47;;;;;;;;;;5279911;28;20463;-72
2023/04/23 12:40:22;;;;;;;1.97;0.40;;;;;;;;;;5281357;28;20410;-72
2023/04/23 12:42:54;;;;;;;3.90;0.50;;;;;;;;;;5279966;28;20267;-72
2023/04/23 12:45:25;;;;;;;2.33;0.30;;;;;;;;;;5281082;28;20275;-72
2023/04/23 12:47:56;;;;;;;2.37;0.50;;;;;;;;;;5279946;28;20025;-72
2023/04/23 12:50:27;;;;;;;2.40;0.30;;;;;;;;;;5280378;28;20634;-71
2023/04/23 12:52:58;;;;;;;2.28;0.38;;;;;;;;;;5280098;28;20350;-72
2023/04/23 12:55:29;;;;;;;2.42;0.40;;;;;;;;;;5280466;28;20290;-71
2023/04/23 12:58:01;;;;;;;2.55;0.47;;;;;;;;;;5276487;28;20471;-72
2023/04/23 13:00:32;;;;;;;3.03;0.37;;;;;;;;;;5280721;28;20498;-72
2023/04/23 13:03:03;;;;;;;3.10;0.40;;;;;;;;;;5280615;28;20313;-72
2023/04/23 13:05:35;;;;;;;3.33;0.43;;;;;;;;;;5276100;28;20059;-72
2023/04/23 13:08:06;;;;;;;1.73;0.30;;;;;;;;;;5284265;28;20024;-73
2023/04/23 13:10:37;;;;;;;2.72;0.30;;;;;;;;;;5283641;28;20016;-73
2023/04/23 13:13:08;;;;;;;2.25;0.30;;;;;;;;;;5284593;28;20065;-74
2023/04/23 13:15:40;;;;;;;3.03;0.30;;;;;;;;;;5284013;28;20036;-71
2023/04/23 13:18:12;;;;;;;4.03;0.50;;;;;;;;;;5282152;28;20266;-71
2023/04/23 13:20:43;;;;;;;2.35;0.30;;;;;;;;;;5282009;28;20094;-71
2023/04/23 13:23:14;;;;;;;3.08;0.30;;;;;;;;;;5284616;28;20019;-71
2023/04/23 13:25:45;;;;;;;1.90;0.30;;;;;;;;;;5283068;28;20294;-74
2023/04/23 13:28:16;;;;;;;2.47;0.30;;;;;;;;;;5284592;28;20017;-72
2023/04/23 13:30:48;;;;;;;3.20;0.43;;;;;;;;;;5284043;28;20019;-74
2023/04/23 13:33:20;;;;;;;2.05;0.38;;;;;;;;;;5283466;28;20024;-74
2023/04/23 13:35:51;;;;;;;2.75;0.40;;;;;;;;;;5283443;28;20024;-72
2023/04/23 13:38:22;;;;;;;1.90;0.40;;;;;;;;;;5283275;28;20013;-73
2023/04/23 13:40:53;;;;;;;2.28;0.30;;;;;;;;;;5283509;28;20086;-73
2023/04/23 13:43:25;;;;;;;2.73;0.20;;;;;;;;;;5284206;28;20050;-74
2023/04/23 13:45:56;;;;;;;2.80;0.43;;;;;;;;;;5282628;28;21091;-73
2023/04/23 13:48:30;;;;;;;3.20;0.50;;;;;;;;;;5284037;28;20625;-73
2023/04/23 13:51:01;;;;;;;3.15;0.30;;;;;;;;;;5283583;28;20028;-72
2023/04/23 13:53:32;;;;;;;4.70;0.40;;;;;;;;;;5282822;28;20020;-73
2023/04/23 13:56:03;;;;;;;4.60;0.40;;;;;;;;;;5283784;28;20116;-72
2023/04/23 13:58:35;;;;;;;2.58;0.35;;;;;;;;;;5277665;28;20100;-72
2023/04/23 14:01:06;;;;;;;3.92;0.35;;;;;;;;;;5281515;28;20025;-72
2023/04/23 14:03:37;;;;;;;4.17;0.30;;;;;;;;;;5281593;28;20046;-74
2023/04/23 14:06:08;;;;;;;2.90;0.35;;;;;;;;;;5282506;28;20365;-72
2023/04/23 14:08:40;;;;;;;5.30;0.47;;;;;;;;;;5281717;28;20032;-73
2023/04/23 14:11:11;;;;;;;2.42;0.40;;;;;;;;;;5282411;28;20039;-71
2023/04/23 14:13:42;;;;;;;3.03;0.37;;;;;;;;;;5280466;28;20425;-70
2023/04/23 14:16:13;;;;;;;3.77;0.37;;;;;;;;;;5282651;28;20361;-70
2023/04/23 14:18:44;;;;;;;2.40;0.32;;;;;;;;;;5281995;28;20263;-70
2023/04/23 14:21:16;;;;;;;3.45;0.40;;;;;;;;;;5281832;28;20013;-70
2023/04/23 14:23:51;;;;;;;2.33;0.52;;;;;;;;;;5281919;28;20272;-70
2023/04/23 14:26:27;;;;;;;3.55;0.45;;;;;;;;;;5281878;28;20106;-69
2023/04/23 14:29:09;;;;;;;4.00;0.70;;;;;;;;;;5281073;28;20024;-69
2023/04/23 14:31:40;;;;;;;1.98;0.40;;;;;;;;;;5281792;28;20148;-72
2023/04/23 14:34:12;;;;;;;3.42;0.50;;;;;;;;;;5282083;28;20135;-69
2023/04/23 14:36:45;;;;;;;4.82;0.70;;;;;;;;;;5280687;28;20274;-71
2023/04/23 14:39:16;;;;;;;4.95;0.60;;;;;;;;;;5282171;28;20255;-74
2023/04/23 14:41:47;;;;;;;3.20;0.52;;;;;;;;;;5280753;28;20024;-73
2023/04/23 14:44:19;;;;;;;4.32;0.50;;;;;;;;;;5281879;28;20012;-71
2023/04/23 14:46:51;;;;;;;4.65;0.60;;;;;;;;;;5281565;28;20047;-70
2023/04/23 14:49:22;;;;;;;4.43;0.70;;;;;;;;;;5281489;28;20012;-71
2023/04/23 14:51:54;;;;;;;3.28;0.40;;;;;;;;;;5281183;28;20094;-71
2023/04/23 14:54:25;;;;;;;3.30;0.70;;;;;;;;;;5281909;28;20062;-71
2023/04/23 14:56:56;;;;;;;3.50;0.40;;;;;;;;;;5280722;28;20021;-70
2023/04/23 14:59:27;;;;;;;4.20;0.60;;;;;;;;;;5281203;28;20028;-70